sensor_id;sensor_type;location;lat;lon;timestamp;temperature;humidity
43414;DHT22;73638;49.676;8.606;2024-03-02T00:00:29;8.2197;69.6056
43414;DHT22;73638;49.676;8.606;2024-03-02T00:05:36;8.0995;69.5033
43414;DHT22;73638;49.676;8.606;2024-03-02T00:10:42;7.8485;69.099
43414;DHT22;73638;49.676;8.606;2024-03-02T00:15:52;7.7844;69.6391
43414;DHT22;73638;49.676;8.606;2024-03-02T00:20:56;8.0087;70.2037
43414;DHT22;73638;49.676;8.606;2024-03-02T00:26:02;8.1342;70.4875
43414;DHT22;73638;49.676;8.606;2024-03-02T00:31:10;8.0648;70.4753
43414;DHT22;73638;49.676;8.606;2024-03-02T00:36:16;7.8138;70.4631
43414;DHT22;73638;49.676;8.606;2024-03-02T00:41:24;7.779;70.6844
43414;DHT22;73638;49.676;8.606;2024-03-02T00:46:31;7.7577;70.2541
43414;DHT22;73638;49.676;8.606;2024-03-02T00:51:35;7.731;70.3029
43414;DHT22;73638;49.676;8.606;2024-03-02T00:56:42;7.6936;70.2037
43414;DHT22;73638;49.676;8.606;2024-03-02T01:01:49;7.6108;69.4179
43414;DHT22;73638;49.676;8.606;2024-03-02T01:06:55;7.4586;69.099
43414;DHT22;73638;49.676;8.606;2024-03-02T01:12:01;7.2557;69.16
43414;DHT22;73638;49.676;8.606;2024-03-02T01:17:08;7.3465;69.7993
43414;DHT22;73638;49.676;8.606;2024-03-02T01:22:15;7.2396;70.0328
43414;DHT22;73638;49.676;8.606;2024-03-02T01:27:21;7.3304;70.0328
43414;DHT22;73638;49.676;8.606;2024-03-02T01:32:28;7.3171;70.3517
43414;DHT22;73638;49.676;8.606;2024-03-02T01:37:34;7.277;70.2785
43414;DHT22;73638;49.676;8.606;2024-03-02T01:42:43;7.2477;70.2174
43414;DHT22;73638;49.676;8.606;2024-03-02T01:47:48;7.0527;70.3029
43414;DHT22;73638;49.676;8.606;2024-03-02T01:52:55;7.1302;70.2785
43414;DHT22;73638;49.676;8.606;2024-03-02T01:58:01;7.1996;69.9702
43414;DHT22;73638;49.676;8.606;2024-03-02T02:03:07;7.0661;69.6635
43414;DHT22;73638;49.676;8.606;2024-03-02T02:08:14;7.0233;69.3568
43414;DHT22;73638;49.676;8.606;2024-03-02T02:13:20;6.8364;68.9876
43414;DHT22;73638;49.676;8.606;2024-03-02T02:18:27;6.7803;69.6345
43414;DHT22;73638;49.676;8.606;2024-03-02T02:23:33;6.7456;70.4448
43414;DHT22;73638;49.676;8.606;2024-03-02T02:28:40;6.7323;70.3471
43414;DHT22;73638;49.676;8.606;2024-03-02T02:33:47;6.5694;70.5562
43414;DHT22;73638;49.676;8.606;2024-03-02T02:38:53;6.7376;70.4814
43414;DHT22;73638;49.676;8.606;2024-03-02T02:44:00;6.7803;70.5684
43414;DHT22;73638;49.676;8.606;2024-03-02T02:49:07;6.6415;70.518
43414;DHT22;73638;49.676;8.606;2024-03-02T02:54:13;6.767;70.7271
43414;DHT22;73638;49.676;8.606;2024-03-02T02:59:20;6.6815;70.8263
43414;DHT22;73638;49.676;8.606;2024-03-02T03:04:26;6.7323;70.8385
43414;DHT22;73638;49.676;8.606;2024-03-02T03:09:33;6.5908;70.6416
43414;DHT22;73638;49.676;8.606;2024-03-02T03:14:40;6.6468;70.0511
43414;DHT22;73638;49.676;8.606;2024-03-02T03:19:46;6.5988;69.659
43414;DHT22;73638;49.676;8.606;2024-03-02T03:24:52;6.5427;69.1676
43414;DHT22;73638;49.676;8.606;2024-03-02T03:29:59;6.5133;69.3629
43414;DHT22;73638;49.676;8.606;2024-03-02T03:35:06;6.4652;69.3767
43414;DHT22;73638;49.676;8.606;2024-03-02T03:40:12;6.4733;70.1503
43414;DHT22;73638;49.676;8.606;2024-03-02T03:45:19;6.3825;70.3838
43414;DHT22;73638;49.676;8.606;2024-03-02T03:50:25;6.3825;70.3105
43414;DHT22;73638;49.676;8.606;2024-03-02T03:55:31;6.5213;70.544
43414;DHT22;73638;49.676;8.606;2024-03-02T04:00:38;6.4786;70.6538
43414;DHT22;73638;49.676;8.606;2024-03-02T04:05:44;6.5507;70.7896
43414;DHT22;73638;49.676;8.606;2024-03-02T04:10:51;6.4786;70.1625
43414;DHT22;73638;49.676;8.606;2024-03-02T04:15:58;6.4439;70.0893
43414;DHT22;73638;49.676;8.606;2024-03-02T04:21:04;6.4439;69.5842
43414;DHT22;73638;49.676;8.606;2024-03-02T04:26:11;6.6041;69.4743
43414;DHT22;73638;49.676;8.606;2024-03-02T04:31:17;6.4385;69.5109
43414;DHT22;73638;49.676;8.606;2024-03-02T04:36:24;6.4599;69.8558
43414;DHT22;73638;49.676;8.606;2024-03-02T04:41:30;6.3264;70.1991
43414;DHT22;73638;49.676;8.606;2024-03-02T04:46:37;6.4038;70.4448
43414;DHT22;73638;49.676;8.606;2024-03-02T04:51:44;6.2783;70.605
43414;DHT22;73638;49.676;8.606;2024-03-02T04:56:50;6.4172;70.7271
43414;DHT22;73638;49.676;8.606;2024-03-02T05:01:57;6.3611;70.7149
43414;DHT22;73638;49.676;8.606;2024-03-02T05:07:04;6.3958;71.0109
43414;DHT22;73638;49.676;8.606;2024-03-02T05:12:10;6.5694;71.0231
43414;DHT22;73638;49.676;8.606;2024-03-02T05:17:17;6.4305;70.9239
43414;DHT22;73638;49.676;8.606;2024-03-02T05:22:24;6.4786;71.2688
43414;DHT22;73638;49.676;8.606;2024-03-02T05:27:30;6.3317;71.133
43414;DHT22;73638;49.676;8.606;2024-03-02T05:32:37;6.2917;70.8507
43414;DHT22;73638;49.676;8.606;2024-03-02T05:37:43;6.4439;70.6905
43414;DHT22;73638;49.676;8.606;2024-03-02T05:42:49;6.1101;70.457
43414;DHT22;73638;49.676;8.606;2024-03-02T05:47:56;6.1795;70.8751
43414;DHT22;73638;49.676;8.606;2024-03-02T05:53:03;6.249;71.2184
43414;DHT22;73638;49.676;8.606;2024-03-02T05:58:09;6.1448;71.0475
43414;DHT22;73638;49.676;8.606;2024-03-02T06:03:16;6.2009;71.1086
43414;DHT22;73638;49.676;8.606;2024-03-02T06:08:22;6.0407;71.0231
43414;DHT22;73638;49.676;8.606;2024-03-02T06:13:29;6.1021;71.0964
43414;DHT22;73638;49.676;8.606;2024-03-02T06:18:36;6.1662;71.2688
43414;DHT22;73638;49.676;8.606;2024-03-02T06:23:42;6.2917;71.3909
43414;DHT22;73638;49.676;8.606;2024-03-02T06:28:49;6.1875;70.9728
43414;DHT22;73638;49.676;8.606;2024-03-02T06:33:56;6.1234;71.1574
43414;DHT22;73638;49.676;8.606;2024-03-02T06:39:02;6.2409;70.985
43414;DHT22;73638;49.676;8.606;2024-03-02T06:44:09;6.1582;71.2062
43414;DHT22;73638;49.676;8.606;2024-03-02T06:49:16;6.0754;70.6416
43414;DHT22;73638;49.676;8.606;2024-03-02T06:54:22;6.1448;70.0893
43414;DHT22;73638;49.676;8.606;2024-03-02T06:59:29;6.0113;69.929
43414;DHT22;73638;49.676;8.606;2024-03-02T07:04:35;6.0246;69.7444
43414;DHT22;73638;49.676;8.606;2024-03-02T07:09:42;6.046;69.9413
43414;DHT22;73638;49.676;8.606;2024-03-02T07:14:48;6.1448;69.9413
43414;DHT22;73638;49.676;8.606;2024-03-02T07:19:55;6.1315;70.0023
43414;DHT22;73638;49.676;8.606;2024-03-02T07:25:03;6.1448;70.4814
43414;DHT22;73638;49.676;8.606;2024-03-02T07:30:09;6.1875;70.6538
43414;DHT22;73638;49.676;8.606;2024-03-02T07:35:17;6.5293;70.7393
43414;DHT22;73638;49.676;8.606;2024-03-02T07:40:24;6.6415;70.6172
43414;DHT22;73638;49.676;8.606;2024-03-02T07:45:31;6.8498;70.425
43414;DHT22;73638;49.676;8.606;2024-03-02T07:50:38;7.277;70.4006
43414;DHT22;73638;49.676;8.606;2024-03-02T07:55:44;7.6322;70.6218
43414;DHT22;73638;49.676;8.606;2024-03-02T08:00:55;7.9046;70.4128
43414;DHT22;73638;49.676;8.606;2024-03-02T08:05:58;8.3371;70.1106
43414;DHT22;73638;49.676;8.606;2024-03-02T08:11:05;8.6442;70.0114
43414;DHT22;73638;49.676;8.606;2024-03-02T08:16:12;8.9033;69.7902
43414;DHT22;73638;49.676;8.606;2024-03-02T08:21:19;9.0982;69.7414
43414;DHT22;73638;49.676;8.606;2024-03-02T08:26:27;9.3145;69.1768
43414;DHT22;73638;49.676;8.606;2024-03-02T08:31:33;9.4961;68.6717
43414;DHT22;73638;49.676;8.606;2024-03-02T08:36:41;9.5468;67.8981
43414;DHT22;73638;49.676;8.606;2024-03-02T08:41:47;9.4694;67.8615
43414;DHT22;73638;49.676;8.606;2024-03-02T08:46:53;9.5121;67.6524
43414;DHT22;73638;49.676;8.606;2024-03-02T08:52:00;9.6162;67.3259
43414;DHT22;73638;49.676;8.606;2024-03-02T08:57:07;9.8539;67.7928
43414;DHT22;73638;49.676;8.606;2024-03-02T09:02:14;10.161;68.3452
43414;DHT22;73638;49.676;8.606;2024-03-02T09:07:21;10.5375;68.2109
43414;DHT22;73638;49.676;8.606;2024-03-02T09:12:27;10.7752;68.1987
43414;DHT22;73638;49.676;8.606;2024-03-02T09:17:34;10.9648;67.5502
43414;DHT22;73638;49.676;8.606;2024-03-02T09:22:41;11.1517;66.6667
43414;DHT22;73638;49.676;8.606;2024-03-02T09:27:48;11.384;66.1372
43414;DHT22;73638;49.676;8.606;2024-03-02T09:33:17;11.6056;66.4942
43414;DHT22;73638;49.676;8.606;2024-03-02T09:38:02;11.8166;65.9663
43414;DHT22;73638;49.676;8.606;2024-03-02T09:43:10;12.1637;65.1667
43414;DHT22;73638;49.676;8.606;2024-03-02T09:48:16;12.1584;64.4541
43414;DHT22;73638;49.676;8.606;2024-03-02T09:53:23;12.2545;64.6021
43414;DHT22;73638;49.676;8.606;2024-03-02T09:58:30;12.4441;64.4724
43414;DHT22;73638;49.676;8.606;2024-03-02T10:03:38;12.5002;63.5996
43414;DHT22;73638;49.676;8.606;2024-03-02T10:08:44;12.5216;63.4272
43414;DHT22;73638;49.676;8.606;2024-03-02T10:13:51;12.4361;63.1693
43414;DHT22;73638;49.676;8.606;2024-03-02T10:18:58;12.3747;62.9358
43414;DHT22;73638;49.676;8.606;2024-03-02T10:24:06;12.34;63.0961
43414;DHT22;73638;49.676;8.606;2024-03-02T10:29:11;12.4788;62.8122
43414;DHT22;73638;49.676;8.606;2024-03-02T10:34:18;12.4922;63.2792
43414;DHT22;73638;49.676;8.606;2024-03-02T10:39:25;12.6551;62.2965
43414;DHT22;73638;49.676;8.606;2024-03-02T10:44:32;12.8847;62.0996
43414;DHT22;73638;49.676;8.606;2024-03-02T10:49:41;13.0877;61.3626
43414;DHT22;73638;49.676;8.606;2024-03-02T10:54:46;13.1918;61.2894
43414;DHT22;73638;49.676;8.606;2024-03-02T10:59:56;13.3173;60.2945
43414;DHT22;73638;49.676;8.606;2024-03-02T11:05:04;13.4989;59.5941
43414;DHT22;73638;49.676;8.606;2024-03-02T11:10:09;13.8834;58.9578
43414;DHT22;73638;49.676;8.606;2024-03-02T11:15:18;14.3294;58.024
43414;DHT22;73638;49.676;8.606;2024-03-02T11:20:23;14.7913;56.9558
43414;DHT22;73638;49.676;8.606;2024-03-02T11:25:31;14.9515;56.0342
43414;DHT22;73638;49.676;8.606;2024-03-02T11:30:53;15.0771;54.5586
43414;DHT22;73638;49.676;8.606;2024-03-02T11:35:45;15.1118;53.6248
43414;DHT22;73638;49.676;8.606;2024-03-02T11:40:51;15.1118;53.4401
43414;DHT22;73638;49.676;8.606;2024-03-02T11:45:59;15.1198;52.8267
43414;DHT22;73638;49.676;8.606;2024-03-02T11:51:05;15.1759;52.4697
43414;DHT22;73638;49.676;8.606;2024-03-02T11:56:13;15.1545;51.8303
43414;DHT22;73638;49.676;8.606;2024-03-02T12:01:19;14.9382;52.3598
43414;DHT22;73638;49.676;8.606;2024-03-02T12:06:26;14.9943;52.0409
43414;DHT22;73638;49.676;8.606;2024-03-02T12:11:33;15.2026;51.8059
43414;DHT22;73638;49.676;8.606;2024-03-02T12:16:43;15.3227;51.3268
43414;DHT22;73638;49.676;8.606;2024-03-02T12:21:47;15.3922;52.3095
43414;DHT22;73638;49.676;8.606;2024-03-02T12:26:54;15.5817;52.1508
43414;DHT22;73638;49.676;8.606;2024-03-02T12:32:01;15.4269;52.0027
43414;DHT22;73638;49.676;8.606;2024-03-02T12:37:11;15.3922;52.0516
43414;DHT22;73638;49.676;8.606;2024-03-02T12:42:15;15.6085;51.3512
43414;DHT22;73638;49.676;8.606;2024-03-02T12:47:22;15.5604;51.3878
43414;DHT22;73638;49.676;8.606;2024-03-02T12:52:28;15.6352;51.4992
43414;DHT22;73638;49.676;8.606;2024-03-02T12:57:35;15.6565;50.8721
43414;DHT22;73638;49.676;8.606;2024-03-02T13:02:42;15.5951;51.7449
43414;DHT22;73638;49.676;8.606;2024-03-02T13:07:50;15.7073;51.9783
43414;DHT22;73638;49.676;8.606;2024-03-02T13:12:56;15.798;50.7622
43414;DHT22;73638;49.676;8.606;2024-03-02T13:18:03;15.9075;51.0811
43414;DHT22;73638;49.676;8.606;2024-03-02T13:23:10;15.798;51.4244
43414;DHT22;73638;49.676;8.606;2024-03-02T13:28:17;15.8675;52.372
43414;DHT22;73638;49.676;8.606;2024-03-02T13:33:24;15.8942;52.2484
43414;DHT22;73638;49.676;8.606;2024-03-02T13:38:31;15.9503;51.8425
43414;DHT22;73638;49.676;8.606;2024-03-02T13:43:38;15.9235;52.6421
43414;DHT22;73638;49.676;8.606;2024-03-02T13:48:45;15.8675;52.163
43414;DHT22;73638;49.676;8.606;2024-03-02T13:53:52;15.8728;52.0027
43414;DHT22;73638;49.676;8.606;2024-03-02T13:58:58;15.9583;51.8669
43414;DHT22;73638;49.676;8.606;2024-03-02T14:04:05;16.0624;51.1421
43414;DHT22;73638;49.676;8.606;2024-03-02T14:09:12;16.1105;51.5724
43414;DHT22;73638;49.676;8.606;2024-03-02T14:14:19;16.1105;51.5358
43414;DHT22;73638;49.676;8.606;2024-03-02T14:19:26;16.1185;51.5846
43414;DHT22;73638;49.676;8.606;2024-03-02T14:24:33;16.2093;51.4992
43414;DHT22;73638;49.676;8.606;2024-03-02T14:29:42;16.2654;51.6213
43414;DHT22;73638;49.676;8.606;2024-03-02T14:34:47;16.1452;51.5724
43414;DHT22;73638;49.676;8.606;2024-03-02T14:39:54;15.9796;52.1126
43414;DHT22;73638;49.676;8.606;2024-03-02T14:45:01;16.0491;52.6909
43414;DHT22;73638;49.676;8.606;2024-03-02T14:50:08;16.0838;51.6838
43414;DHT22;73638;49.676;8.606;2024-03-02T14:55:15;16.252;51.548
43414;DHT22;73638;49.676;8.606;2024-03-02T15:00:22;16.3268;51.5846
43414;DHT22;73638;49.676;8.606;2024-03-02T15:05:28;16.3989;51.4382
43414;DHT22;73638;49.676;8.606;2024-03-02T15:10:35;16.5084;51.5084
43414;DHT22;73638;49.676;8.606;2024-03-02T15:15:43;16.6712;51.4839
43414;DHT22;73638;49.676;8.606;2024-03-02T15:20:49;16.5938;51.3497
43414;DHT22;73638;49.676;8.606;2024-03-02T15:25:56;16.5377;51.3237
43414;DHT22;73638;49.676;8.606;2024-03-02T15:31:03;16.3134;51.2291
43414;DHT22;73638;49.676;8.606;2024-03-02T15:36:10;16.041;51.4748
43414;DHT22;73638;49.676;8.606;2024-03-02T15:41:17;15.9022;51.7327
43414;DHT22;73638;49.676;8.606;2024-03-02T15:46:23;15.7259;51.6335
43414;DHT22;73638;49.676;8.606;2024-03-02T15:51:30;15.4189;52.2362
43414;DHT22;73638;49.676;8.606;2024-03-02T15:56:39;15.2373;53.4157
43414;DHT22;73638;49.676;8.606;2024-03-02T16:01:44;14.9943;54.6456
43414;DHT22;73638;49.676;8.606;2024-03-02T16:06:51;14.6925;55.3948
43414;DHT22;73638;49.676;8.606;2024-03-02T16:11:58;14.5323;56.0342
43414;DHT22;73638;49.676;8.606;2024-03-02T16:17:08;14.4362;56.5866
43414;DHT22;73638;49.676;8.606;2024-03-02T16:22:11;14.2546;56.9802
43414;DHT22;73638;49.676;8.606;2024-03-02T16:27:18;14.057;57.9385
43414;DHT22;73638;49.676;8.606;2024-03-02T16:32:25;13.9609;57.9507
43414;DHT22;73638;49.676;8.606;2024-03-02T16:37:32;13.7579;58.4787
43414;DHT22;73638;49.676;8.606;2024-03-02T16:42:38;13.6671;59.1882
43414;DHT22;73638;49.676;8.606;2024-03-02T16:47:45;13.6324;59.5193
43414;DHT22;73638;49.676;8.606;2024-03-02T16:52:51;13.3948;60.1221
43414;DHT22;73638;49.676;8.606;2024-03-02T16:57:58;13.352;59.9741
43414;DHT22;73638;49.676;8.606;2024-03-02T17:03:05;13.4001;60.0244
43414;DHT22;73638;49.676;8.606;2024-03-02T17:08:12;13.3253;60.65
43414;DHT22;73638;49.676;8.606;2024-03-02T17:13:19;13.3173;60.8591
43414;DHT22;73638;49.676;8.606;2024-03-02T17:18:26;13.1571;60.4044
43414;DHT22;73638;49.676;8.606;2024-03-02T17:23:32;13.1785;60.5158
43414;DHT22;73638;49.676;8.606;2024-03-02T17:28:39;13.1571;60.4654
43414;DHT22;73638;49.676;8.606;2024-03-02T17:33:46;13.1491;59.9985
43414;DHT22;73638;49.676;8.606;2024-03-02T17:38:53;13.2052;59.9252
43414;DHT22;73638;49.676;8.606;2024-03-02T17:44:00;13.2185;59.4949
43414;DHT22;73638;49.676;8.606;2024-03-02T17:49:07;13.3387;59.0402
43414;DHT22;73638;49.676;8.606;2024-03-02T17:54:13;13.4001;58.6847
43414;DHT22;73638;49.676;8.606;2024-03-02T17:59:20;13.36;58.6725
43414;DHT22;73638;49.676;8.606;2024-03-02T18:04:27;13.4081;58.291
43414;DHT22;73638;49.676;8.606;2024-03-02T18:09:34;13.4215;58.5611
43414;DHT22;73638;49.676;8.606;2024-03-02T18:14:41;13.4215;58.4024
43414;DHT22;73638;49.676;8.606;2024-03-02T18:19:49;13.3948;58.439
43414;DHT22;73638;49.676;8.606;2024-03-02T18:24:55;13.4215;57.9355
43414;DHT22;73638;49.676;8.606;2024-03-02T18:30:02;13.5283;57.3083
43414;DHT22;73638;49.676;8.606;2024-03-02T18:35:09;13.6591;57.0016
43414;DHT22;73638;49.676;8.606;2024-03-02T18:40:16;13.7232;57.0413
43414;DHT22;73638;49.676;8.606;2024-03-02T18:45:23;13.806;57.1145
43414;DHT22;73638;49.676;8.606;2024-03-02T18:50:30;13.8701;56.8689
43414;DHT22;73638;49.676;8.606;2024-03-02T18:55:37;14.0169;56.6979
43414;DHT22;73638;49.676;8.606;2024-03-02T19:00:44;14.065;56.8322
43414;DHT22;73638;49.676;8.606;2024-03-02T19:05:50;14.0517;57.0901
43414;DHT22;73638;49.676;8.606;2024-03-02T19:10:57;13.9742;56.8811
43414;DHT22;73638;49.676;8.606;2024-03-02T19:16:05;13.9261;57.1893
43414;DHT22;73638;49.676;8.606;2024-03-02T19:16:09;13.9261;57.1893
43414;DHT22;73638;49.676;8.606;2024-03-02T19:21:18;13.8914;57.3236
43414;DHT22;73638;49.676;8.606;2024-03-02T19:26:20;13.8193;58.1476
43414;DHT22;73638;49.676;8.606;2024-03-02T19:31:26;13.7713;58.0621
43414;DHT22;73638;49.676;8.606;2024-03-02T19:36:33;13.6885;58.3932
43414;DHT22;73638;49.676;8.606;2024-03-02T19:41:40;13.6805;58.3566
43414;DHT22;73638;49.676;8.606;2024-03-02T19:46:47;13.5817;58.9303
43414;DHT22;73638;49.676;8.606;2024-03-02T19:51:54;13.4001;59.2981
43414;DHT22;73638;49.676;8.606;2024-03-02T19:57:00;13.2399;59.6796
43414;DHT22;73638;49.676;8.606;2024-03-02T20:02:07;13.1998;59.5071
43414;DHT22;73638;49.676;8.606;2024-03-02T20:07:14;13.0369;59.6796
43414;DHT22;73638;49.676;8.606;2024-03-02T20:12:21;12.9755;60.3189
43414;DHT22;73638;49.676;8.606;2024-03-02T20:17:28;12.8153;60.5768
43414;DHT22;73638;49.676;8.606;2024-03-02T20:22:34;12.8073;60.589
43414;DHT22;73638;49.676;8.606;2024-03-02T20:27:41;12.8767;60.3922
43414;DHT22;73638;49.676;8.606;2024-03-02T20:32:48;12.7592;60.528
43414;DHT22;73638;49.676;8.606;2024-03-02T20:37:54;12.8153;60.3922
43414;DHT22;73638;49.676;8.606;2024-03-02T20:43:01;12.9061;60.3677
43414;DHT22;73638;49.676;8.606;2024-03-02T20:48:08;12.8767;60.441
43414;DHT22;73638;49.676;8.606;2024-03-02T20:53:15;12.8634;60.6744
43414;DHT22;73638;49.676;8.606;2024-03-02T20:58:21;12.8714;60.3433
43414;DHT22;73638;49.676;8.606;2024-03-02T21:03:28;12.8073;60.1831
43414;DHT22;73638;49.676;8.606;2024-03-02T21:08:35;12.85;59.9619
43414;DHT22;73638;49.676;8.606;2024-03-02T21:13:42;12.8767;59.704
43414;DHT22;73638;49.676;8.606;2024-03-02T21:18:48;12.8073;60.0488
43414;DHT22;73638;49.676;8.606;2024-03-02T21:23:55;12.6337;60.4532
43414;DHT22;73638;49.676;8.606;2024-03-02T21:29:02;12.6177;60.441
43414;DHT22;73638;49.676;8.606;2024-03-02T21:34:08;12.6257;59.9252
43414;DHT22;73638;49.676;8.606;2024-03-02T21:39:15;12.6471;59.852
43414;DHT22;73638;49.676;8.606;2024-03-02T21:44:22;12.7298;60.061
43414;DHT22;73638;49.676;8.606;2024-03-02T21:49:35;12.8286;59.9985
43414;DHT22;73638;49.676;8.606;2024-03-02T21:54:36;12.8206;60.1587
43414;DHT22;73638;49.676;8.606;2024-03-02T21:59:43;12.85;59.8642
43414;DHT22;73638;49.676;8.606;2024-03-02T22:04:50;12.9061;59.6429
43414;DHT22;73638;49.676;8.606;2024-03-02T22:09:57;12.8901;59.9008
43414;DHT22;73638;49.676;8.606;2024-03-02T22:15:04;12.8981;59.9619
43414;DHT22;73638;49.676;8.606;2024-03-02T22:20:11;12.85;60.4532
43414;DHT22;73638;49.676;8.606;2024-03-02T22:25:18;12.6898;60.6867
43414;DHT22;73638;49.676;8.606;2024-03-02T22:30:24;12.5135;60.9583
43414;DHT22;73638;49.676;8.606;2024-03-02T22:35:31;12.4174;61.2039
43414;DHT22;73638;49.676;8.606;2024-03-02T22:40:38;12.2705;61.1856
43414;DHT22;73638;49.676;8.606;2024-03-02T22:45:44;12.0035;61.9226
43414;DHT22;73638;49.676;8.606;2024-03-02T22:50:51;11.8086;62.562
43414;DHT22;73638;49.676;8.606;2024-03-02T22:56:00;11.7819;62.7955
43414;DHT22;73638;49.676;8.606;2024-03-02T23:01:07;11.6617;63.1647
43414;DHT22;73638;49.676;8.606;2024-03-02T23:06:13;11.5442;63.1769
43414;DHT22;73638;49.676;8.606;2024-03-02T23:11:20;11.4801;63.0533
43414;DHT22;73638;49.676;8.606;2024-03-02T23:16:26;11.376;63.4836
43414;DHT22;73638;49.676;8.606;2024-03-02T23:21:33;11.2772;63.827
43414;DHT22;73638;49.676;8.606;2024-03-02T23:26:40;11.1864;64.2817
43414;DHT22;73638;49.676;8.606;2024-03-02T23:31:46;11.0609;64.7608
43414;DHT22;73638;49.676;8.606;2024-03-02T23:36:53;11.0048;64.3565
43414;DHT22;73638;49.676;8.606;2024-03-02T23:42:00;11.0128;64.5396
43414;DHT22;73638;49.676;8.606;2024-03-02T23:47:07;10.922;64.9546
43414;DHT22;73638;49.676;8.606;2024-03-02T23:52:14;10.8793;65.1759
43414;DHT22;73638;49.676;8.606;2024-03-02T23:57:21;11.0475;64.3687
